createdAt,value
2023-03-24T00:00:24.961Z,9.20
2023-03-24T00:01:26.991Z,9.20
2023-03-24T00:02:29.402Z,9.20
2023-03-24T00:03:31.782Z,9.20
2023-03-24T00:04:34.490Z,9.20
2023-03-24T00:05:36.659Z,9.20
2023-03-24T00:06:38.726Z,9.10
2023-03-24T00:07:41.226Z,9.10
2023-03-24T00:08:44.131Z,9.10
2023-03-24T00:09:46.425Z,9.10
2023-03-24T00:10:48.702Z,9.10
2023-03-24T00:11:50.808Z,9.10
2023-03-24T00:12:52.807Z,9.10
2023-03-24T00:13:58.588Z,9.10
2023-03-24T00:15:02.859Z,9.10
2023-03-24T00:16:07.110Z,9.10
2023-03-24T00:17:13.885Z,9.10
2023-03-24T00:18:15.941Z,9.10
2023-03-24T00:19:18.289Z,9.10
2023-03-24T00:20:20.991Z,9.10
2023-03-24T00:21:26.625Z,9.10
2023-03-24T00:22:28.676Z,9.10
2023-03-24T00:23:34.067Z,9.10
2023-03-24T00:24:36.077Z,9.10
2023-03-24T00:25:40.206Z,9.00
2023-03-24T00:26:42.423Z,9.10
2023-03-24T00:27:45.048Z,9.00
2023-03-24T00:28:48.397Z,9.00
2023-03-24T00:29:50.430Z,9.00
2023-03-24T00:30:52.503Z,9.00
2023-03-24T00:31:56.246Z,9.00
2023-03-24T00:32:59.195Z,9.00
2023-03-24T00:34:03.000Z,9.00
2023-03-24T00:35:05.607Z,9.00
2023-03-24T00:36:11.961Z,9.00
2023-03-24T00:37:14.176Z,9.00
2023-03-24T00:38:16.181Z,9.00
2023-03-24T00:39:18.604Z,9.00
2023-03-24T00:40:21.668Z,9.00
2023-03-24T00:41:25.107Z,9.00
2023-03-24T00:42:27.187Z,9.00
2023-03-24T00:43:29.463Z,9.00
2023-03-24T00:44:31.483Z,9.00
2023-03-24T00:45:34.836Z,9.00
2023-03-24T00:46:37.701Z,9.00
2023-03-24T00:47:41.502Z,9.00
2023-03-24T00:48:43.494Z,8.90
2023-03-24T00:49:45.503Z,8.90
2023-03-24T00:50:48.407Z,8.90
2023-03-24T00:51:52.089Z,8.90
2023-03-24T00:52:54.738Z,8.90
2023-03-24T00:53:58.216Z,8.90
2023-03-24T00:55:01.951Z,8.90
2023-03-24T00:56:04.243Z,8.90
2023-03-24T00:57:06.571Z,8.90
2023-03-24T00:58:08.701Z,8.90
2023-03-24T00:59:11.190Z,8.90
2023-03-24T01:00:14.606Z,8.80
2023-03-24T01:01:22.408Z,8.90
2023-03-24T01:02:25.622Z,8.80
2023-03-24T01:03:29.484Z,8.80
2023-03-24T01:04:36.239Z,8.80
2023-03-24T01:05:38.360Z,8.80
2023-03-24T01:06:41.265Z,8.80
2023-03-24T01:07:43.808Z,8.70
2023-03-24T01:08:46.126Z,8.80
2023-03-24T01:09:57.650Z,8.70
2023-03-24T01:11:01.520Z,8.70
2023-03-24T01:12:05.400Z,8.70
2023-03-24T01:13:07.502Z,8.70
2023-03-24T01:14:10.700Z,8.70
2023-03-24T01:15:15.138Z,8.70
2023-03-24T01:16:17.504Z,8.70
2023-03-24T01:17:19.598Z,8.70
2023-03-24T01:18:24.375Z,8.70
2023-03-24T01:19:33.510Z,8.70
2023-03-24T01:20:37.007Z,8.70
2023-03-24T01:21:42.354Z,8.70
2023-03-24T01:22:48.727Z,8.60
2023-03-24T01:23:50.965Z,8.70
2023-03-24T01:24:53.319Z,8.60
2023-03-24T01:25:56.874Z,8.60
2023-03-24T01:27:04.013Z,8.60
2023-03-24T01:28:09.185Z,8.60
2023-03-24T01:29:15.103Z,8.60
2023-03-24T01:30:21.232Z,8.60
2023-03-24T01:31:29.681Z,8.60
2023-03-24T01:32:32.445Z,8.60
2023-03-24T01:33:35.606Z,8.60
2023-03-24T01:34:39.618Z,8.60
2023-03-24T01:35:43.793Z,8.60
2023-03-24T01:36:46.357Z,8.60
2023-03-24T01:37:50.575Z,8.50
2023-03-24T01:38:53.386Z,8.50
2023-03-24T01:39:55.579Z,8.50
2023-03-24T01:40:59.892Z,8.50
2023-03-24T01:42:04.974Z,8.50
2023-03-24T01:43:16.252Z,8.40
2023-03-24T01:44:25.864Z,8.50
2023-03-24T01:45:41.570Z,8.40
2023-03-24T01:46:43.837Z,8.40
2023-03-24T01:47:47.815Z,8.40
2023-03-24T01:48:55.228Z,8.40
2023-03-24T01:50:02.909Z,8.40
2023-03-24T01:51:08.262Z,8.40
2023-03-24T01:52:11.994Z,8.30
2023-03-24T01:53:15.964Z,8.30
2023-03-24T01:54:20.645Z,8.30
2023-03-24T01:55:23.485Z,8.30
2023-03-24T01:56:26.496Z,8.30
2023-03-24T01:57:31.164Z,8.30
2023-03-24T01:58:35.516Z,8.30
2023-03-24T01:59:43.683Z,8.20
2023-03-24T02:00:46.831Z,8.20
2023-03-24T02:01:49.625Z,8.20
2023-03-24T02:02:55.010Z,8.20
2023-03-24T02:03:57.954Z,8.20
2023-03-24T02:05:03.005Z,8.10
2023-03-24T02:06:05.217Z,8.10
2023-03-24T02:07:10.265Z,8.10
2023-03-24T02:08:16.667Z,8.10
2023-03-24T02:09:18.745Z,8.10
2023-03-24T02:10:22.006Z,8.00
2023-03-24T02:11:25.378Z,8.00
2023-03-24T02:12:27.555Z,8.00
2023-03-24T02:13:29.637Z,7.90
2023-03-24T02:14:32.136Z,7.90
2023-03-24T02:15:36.996Z,7.90
2023-03-24T02:16:46.563Z,7.90
2023-03-24T02:17:57.361Z,7.90
2023-03-24T02:19:06.045Z,7.90
2023-03-24T02:20:22.102Z,7.80
2023-03-24T02:21:32.788Z,7.80
2023-03-24T02:22:53.450Z,7.70
2023-03-24T02:24:43.126Z,7.70
2023-03-24T02:26:08.292Z,7.70
2023-03-24T02:27:27.363Z,7.60
2023-03-24T02:28:39.182Z,7.60
2023-03-24T02:30:09.858Z,7.60
2023-03-24T02:33:12.804Z,7.50
2023-03-24T02:34:51.158Z,7.40
2023-03-24T02:36:34.920Z,7.40
2023-03-24T02:38:02.348Z,7.40
2023-03-24T02:39:35.372Z,7.30
2023-03-24T02:40:45.950Z,7.30
2023-03-24T02:41:55.520Z,7.30
2023-03-24T02:43:09.310Z,7.30
2023-03-24T02:44:20.446Z,7.30
2023-03-24T02:45:28.041Z,7.30
2023-03-24T02:46:36.116Z,7.20
2023-03-24T02:47:46.552Z,7.20
2023-03-24T02:49:03.958Z,7.20
2023-03-24T02:50:14.717Z,7.30
2023-03-24T02:51:24.271Z,7.20
2023-03-24T02:52:35.417Z,7.20
2023-03-24T02:53:49.484Z,7.20
2023-03-24T02:55:00.994Z,7.20
2023-03-24T02:56:11.926Z,7.20
2023-03-24T02:57:21.934Z,7.10
2023-03-24T02:58:27.655Z,7.10
2023-03-24T02:59:32.194Z,7.10
2023-03-24T03:00:36.109Z,7.10
2023-03-24T03:01:41.507Z,7.10
2023-03-24T03:02:46.186Z,7.10
2023-03-24T03:03:52.264Z,7.10
2023-03-24T03:04:58.209Z,7.10
2023-03-24T03:06:03.344Z,7.10
2023-03-24T03:07:10.066Z,7.10
2023-03-24T03:08:14.075Z,7.00
2023-03-24T03:09:17.624Z,7.00
2023-03-24T03:10:24.567Z,7.00
2023-03-24T03:11:26.693Z,7.00
2023-03-24T03:12:30.740Z,7.00
2023-03-24T03:13:34.680Z,7.00
2023-03-24T03:14:39.060Z,7.00
2023-03-24T03:15:43.820Z,7.00
2023-03-24T03:16:47.714Z,6.90
2023-03-24T03:17:54.103Z,6.90
2023-03-24T03:18:58.917Z,6.90
2023-03-24T03:20:11.024Z,6.90
2023-03-24T03:21:18.654Z,6.90
2023-03-24T03:22:23.583Z,6.90
2023-03-24T03:23:31.596Z,6.90
2023-03-24T03:24:35.561Z,6.80
2023-03-24T03:25:42.370Z,6.80
2023-03-24T03:26:45.795Z,6.80
2023-03-24T03:27:47.999Z,6.80
2023-03-24T03:28:52.179Z,6.80
2023-03-24T03:29:57.004Z,6.70
2023-03-24T03:31:01.413Z,6.70
2023-03-24T03:32:08.329Z,6.80
2023-03-24T03:33:13.881Z,6.70
2023-03-24T03:34:20.590Z,6.70
2023-03-24T03:35:24.093Z,6.70
2023-03-24T03:36:28.585Z,6.60
2023-03-24T03:37:34.352Z,6.60
2023-03-24T03:38:40.924Z,6.60
2023-03-24T03:39:45.504Z,6.60
2023-03-24T03:40:52.530Z,6.50
2023-03-24T03:41:56.166Z,6.60
2023-03-24T03:42:59.058Z,6.50
2023-03-24T03:44:03.654Z,6.50
2023-03-24T03:45:07.420Z,6.40
2023-03-24T03:46:09.623Z,6.50
2023-03-24T03:47:15.222Z,6.40
2023-03-24T03:48:22.429Z,6.40
2023-03-24T03:49:26.436Z,6.40
2023-03-24T03:50:29.449Z,6.40
2023-03-24T03:51:34.792Z,6.40
2023-03-24T03:52:38.973Z,6.30
2023-03-24T03:53:46.755Z,6.30
2023-03-24T03:54:50.042Z,6.30
2023-03-24T03:55:53.801Z,6.30
2023-03-24T03:56:58.583Z,6.20
2023-03-24T03:58:01.048Z,6.20
2023-03-24T03:59:04.469Z,6.20
2023-03-24T04:00:15.827Z,6.20
2023-03-24T04:01:20.550Z,6.20
2023-03-24T04:02:40.877Z,6.10
2023-03-24T04:04:08.457Z,6.10
2023-03-24T04:05:26.622Z,6.10
2023-03-24T04:06:36.892Z,6.00
2023-03-24T04:07:58.197Z,6.00
2023-03-24T04:09:10.103Z,6.00
2023-03-24T04:10:21.817Z,6.00
2023-03-24T04:11:39.901Z,6.00
2023-03-24T04:12:58.906Z,5.90
2023-03-24T04:14:24.447Z,6.00
2023-03-24T04:15:35.909Z,5.90
2023-03-24T04:16:46.177Z,5.90
2023-03-24T04:17:58.630Z,5.90
2023-03-24T04:19:07.804Z,5.90
2023-03-24T04:20:15.171Z,5.90
2023-03-24T04:21:33.986Z,5.90
2023-03-24T04:22:40.208Z,5.90
2023-03-24T04:23:46.110Z,5.90
2023-03-24T04:24:50.515Z,5.90
2023-03-24T04:25:59.007Z,5.90
2023-03-24T04:27:09.692Z,5.90
2023-03-24T04:28:15.932Z,5.90
2023-03-24T04:29:20.905Z,5.90
2023-03-24T04:30:26.052Z,5.90
2023-03-24T04:31:31.133Z,5.90
2023-03-24T04:32:36.253Z,5.80
2023-03-24T04:33:45.705Z,5.80
2023-03-24T04:34:54.377Z,5.90
2023-03-24T04:36:06.493Z,5.90
2023-03-24T04:37:12.624Z,5.90
2023-03-24T04:38:19.234Z,5.80
2023-03-24T04:39:28.164Z,5.90
2023-03-24T04:40:33.261Z,5.90
2023-03-24T04:41:37.855Z,5.90
2023-03-24T04:42:42.190Z,5.80
2023-03-24T04:43:45.802Z,5.80
2023-03-24T04:44:51.464Z,5.80
2023-03-24T04:45:57.906Z,5.90
2023-03-24T04:47:02.605Z,5.80
2023-03-24T04:48:08.781Z,5.80
2023-03-24T04:49:13.018Z,5.80
2023-03-24T04:50:14.990Z,5.80
2023-03-24T04:51:17.636Z,5.90
2023-03-24T04:52:21.718Z,5.80
2023-03-24T04:53:26.264Z,5.80
2023-03-24T04:54:28.798Z,5.80
2023-03-24T04:55:40.033Z,5.80
2023-03-24T04:56:48.103Z,5.80
2023-03-24T04:57:52.274Z,5.80
2023-03-24T04:58:54.735Z,5.80
2023-03-24T04:59:56.868Z,5.80
2023-03-24T05:00:58.933Z,5.80
2023-03-24T05:02:01.621Z,5.80
2023-03-24T05:03:03.702Z,5.80
2023-03-24T05:04:06.260Z,5.80
2023-03-24T05:05:08.708Z,5.80
2023-03-24T05:06:10.619Z,5.80
2023-03-24T05:07:12.566Z,5.80
2023-03-24T05:08:15.311Z,5.90
2023-03-24T05:09:18.094Z,5.90
2023-03-24T05:10:22.043Z,5.90
2023-03-24T05:11:24.240Z,5.90
2023-03-24T05:12:26.209Z,5.90
2023-03-24T05:13:29.516Z,5.90
2023-03-24T05:14:31.481Z,5.90
2023-03-24T05:15:33.365Z,5.90
2023-03-24T05:16:35.658Z,6.00
2023-03-24T05:17:38.558Z,5.90
2023-03-24T05:18:40.554Z,6.00
2023-03-24T05:19:42.474Z,6.00
2023-03-24T05:20:44.390Z,6.00
2023-03-24T05:21:47.356Z,6.00
2023-03-24T05:22:49.861Z,6.00
2023-03-24T05:23:51.846Z,6.00
2023-03-24T05:24:53.691Z,6.00
2023-03-24T05:25:55.891Z,6.00
2023-03-24T05:26:57.875Z,6.00
2023-03-24T05:27:59.824Z,6.00
2023-03-24T05:29:03.461Z,6.00
2023-03-24T05:30:06.479Z,6.10
2023-03-24T05:31:08.510Z,6.10
2023-03-24T05:32:10.404Z,6.10
2023-03-24T05:33:12.602Z,6.10
2023-03-24T05:34:14.765Z,6.10
2023-03-24T05:35:16.876Z,6.10
2023-03-24T05:36:19.001Z,6.10
2023-03-24T05:37:21.039Z,6.10
2023-03-24T05:38:23.065Z,6.10
2023-03-24T05:39:25.286Z,6.10
2023-03-24T05:40:27.341Z,6.10
2023-03-24T05:41:29.235Z,6.10
2023-03-24T05:42:31.187Z,6.10
2023-03-24T05:43:33.115Z,6.10
2023-03-24T05:44:36.419Z,6.10
2023-03-24T05:45:38.556Z,6.10
2023-03-24T05:46:41.501Z,6.10
2023-03-24T05:47:43.561Z,6.10
2023-03-24T05:48:46.812Z,6.10
2023-03-24T05:49:49.082Z,6.10
2023-03-24T05:50:51.952Z,6.10
2023-03-24T05:51:53.884Z,6.10
2023-03-24T05:52:56.186Z,6.10
2023-03-24T05:53:58.208Z,6.10
2023-03-24T05:55:00.283Z,6.10
2023-03-24T05:56:03.139Z,6.10
2023-03-24T05:57:05.476Z,6.10
2023-03-24T05:58:07.712Z,6.10
2023-03-24T05:59:11.541Z,6.10
2023-03-24T06:00:17.267Z,6.20
2023-03-24T06:01:19.493Z,6.20
2023-03-24T06:02:21.524Z,6.20
2023-03-24T06:03:26.260Z,6.20
2023-03-24T06:04:31.399Z,6.20
2023-03-24T06:05:33.809Z,6.20
2023-03-24T06:06:36.439Z,6.20
2023-03-24T06:07:39.283Z,6.30
2023-03-24T06:08:41.238Z,6.30
2023-03-24T06:09:47.012Z,6.30
2023-03-24T06:10:53.564Z,6.30
2023-03-24T06:11:57.737Z,6.40
2023-03-24T06:13:00.863Z,6.40
2023-03-24T06:14:03.463Z,6.40
2023-03-24T06:15:06.158Z,6.50
2023-03-24T06:16:10.186Z,6.50
2023-03-24T06:17:15.579Z,6.50
2023-03-24T06:18:17.826Z,6.50
2023-03-24T06:19:26.528Z,6.50
2023-03-24T06:20:33.512Z,6.60
2023-03-24T06:21:36.481Z,6.70
2023-03-24T06:22:39.460Z,6.70
2023-03-24T06:23:41.886Z,6.80
2023-03-24T06:24:47.168Z,7.00
2023-03-24T06:25:50.864Z,7.20
2023-03-24T06:26:52.934Z,7.30
2023-03-24T06:27:57.389Z,7.30
2023-03-24T06:29:02.183Z,7.20
2023-03-24T06:30:05.346Z,7.20
2023-03-24T06:31:14.767Z,7.10
2023-03-24T06:32:20.160Z,7.10
2023-03-24T06:33:25.880Z,7.10
2023-03-24T06:34:29.444Z,7.10
2023-03-24T06:35:35.777Z,7.10
2023-03-24T06:36:40.950Z,7.20
2023-03-24T06:37:43.018Z,7.20
2023-03-24T06:38:45.877Z,7.20
2023-03-24T06:39:50.828Z,7.30
2023-03-24T06:40:52.853Z,7.30
2023-03-24T06:41:57.826Z,7.40
2023-03-24T06:43:00.307Z,7.40
2023-03-24T06:44:02.430Z,7.40
2023-03-24T06:45:07.753Z,7.40
2023-03-24T06:46:11.040Z,7.40
2023-03-24T06:47:14.841Z,7.40
2023-03-24T06:48:18.214Z,7.50
2023-03-24T06:49:23.547Z,7.50
2023-03-24T06:50:35.124Z,7.50
2023-03-24T06:51:37.267Z,7.50
2023-03-24T06:52:39.388Z,7.50
2023-03-24T06:53:46.041Z,7.50
2023-03-24T06:54:48.392Z,7.50
2023-03-24T06:55:52.955Z,7.60
2023-03-24T06:56:55.410Z,7.60
2023-03-24T06:57:58.301Z,7.60
2023-03-24T06:59:03.593Z,7.70
2023-03-24T07:00:06.987Z,7.70
2023-03-24T07:01:09.098Z,7.70
2023-03-24T07:02:12.721Z,7.70
2023-03-24T07:03:15.736Z,7.70
2023-03-24T07:04:19.339Z,7.80
2023-03-24T07:05:24.250Z,7.80
2023-03-24T07:06:26.757Z,7.80
2023-03-24T07:08:16.219Z,7.90
2023-03-24T07:08:52.689Z,7.90
2023-03-24T07:09:55.500Z,7.90
2023-03-24T07:10:58.241Z,7.90
2023-03-24T07:12:02.646Z,8.00
2023-03-24T07:13:04.608Z,8.10
2023-03-24T07:14:07.470Z,8.10
2023-03-24T07:15:09.831Z,8.10
2023-03-24T07:16:12.802Z,8.10
2023-03-24T07:17:14.914Z,8.10
2023-03-24T07:18:16.994Z,8.10
2023-03-24T07:19:22.637Z,8.10
2023-03-24T07:20:24.622Z,8.10
2023-03-24T07:21:26.463Z,8.10
2023-03-24T07:22:28.390Z,8.10
2023-03-24T07:23:31.329Z,8.20
2023-03-24T07:24:33.216Z,8.20
2023-03-24T07:25:35.156Z,8.30
2023-03-24T07:26:37.403Z,8.30
2023-03-24T07:27:41.110Z,8.30
2023-03-24T07:28:44.644Z,8.30
2023-03-24T07:29:46.545Z,8.30
2023-03-24T07:30:48.423Z,8.30
2023-03-24T07:31:50.778Z,8.40
2023-03-24T07:32:55.696Z,8.40
2023-03-24T07:34:00.391Z,8.50
2023-03-24T07:35:06.738Z,8.60
2023-03-24T07:36:09.457Z,8.60
2023-03-24T07:37:11.996Z,8.70
2023-03-24T07:38:14.279Z,8.70
2023-03-24T07:39:16.641Z,8.80
2023-03-24T07:40:18.948Z,8.80
2023-03-24T07:41:21.066Z,8.70
2023-03-24T07:42:25.623Z,8.70
2023-03-24T07:43:27.864Z,8.70
2023-03-24T07:44:29.940Z,8.80
2023-03-24T07:45:33.152Z,8.90
2023-03-24T07:46:36.564Z,8.90
2023-03-24T07:47:39.771Z,8.90
2023-03-24T07:48:42.575Z,8.90
2023-03-24T07:49:53.820Z,8.90
2023-03-24T07:50:57.107Z,8.70
2023-03-24T07:51:59.423Z,8.60
2023-03-24T07:53:01.587Z,8.60
2023-03-24T07:54:03.959Z,8.50
2023-03-24T07:55:09.725Z,8.50
2023-03-24T07:56:13.046Z,8.50
2023-03-24T07:57:15.200Z,8.50
2023-03-24T07:58:17.887Z,8.50
2023-03-24T07:59:20.522Z,8.50
2023-03-24T08:00:25.097Z,8.50
2023-03-24T08:01:30.143Z,8.50
2023-03-24T08:02:32.398Z,8.50
2023-03-24T08:03:36.471Z,8.50
2023-03-24T08:04:39.004Z,8.50
2023-03-24T08:05:42.073Z,8.40
2023-03-24T08:06:45.842Z,8.30
2023-03-24T08:07:55.882Z,8.20
2023-03-24T08:08:58.393Z,8.20
2023-03-24T08:10:01.291Z,8.10
2023-03-24T08:11:04.007Z,8.10
2023-03-24T08:12:17.462Z,8.10
2023-03-24T08:13:22.957Z,8.10
2023-03-24T08:14:26.307Z,8.00
2023-03-24T08:15:29.046Z,8.00
2023-03-24T08:16:31.439Z,7.90
2023-03-24T08:17:33.711Z,7.90
2023-03-24T08:18:36.027Z,7.90
2023-03-24T08:19:45.368Z,7.90
2023-03-24T08:20:58.634Z,8.00
2023-03-24T08:22:02.365Z,8.00
2023-03-24T08:23:05.127Z,8.00
2023-03-24T08:24:07.668Z,8.00
2023-03-24T08:25:11.278Z,8.10
2023-03-24T08:26:13.581Z,8.20
2023-03-24T08:27:17.054Z,8.20
2023-03-24T08:28:19.279Z,8.30
2023-03-24T08:29:21.507Z,8.30
2023-03-24T08:30:26.050Z,8.30
2023-03-24T08:31:35.086Z,8.30
2023-03-24T08:32:38.396Z,8.20
2023-03-24T08:33:41.736Z,8.30
2023-03-24T08:34:44.012Z,8.40
2023-03-24T08:35:46.833Z,8.40
2023-03-24T08:36:49.356Z,8.40
2023-03-24T08:37:53.059Z,8.40
2023-03-24T08:38:55.741Z,8.50
2023-03-24T08:39:58.706Z,8.50
2023-03-24T08:41:06.970Z,8.60
2023-03-24T08:42:09.270Z,8.50
2023-03-24T08:43:14.919Z,8.60
2023-03-24T08:44:17.085Z,8.60
2023-03-24T08:45:21.566Z,8.70
2023-03-24T08:46:24.100Z,8.70
2023-03-24T08:47:26.831Z,8.70
2023-03-24T08:48:30.516Z,8.80
2023-03-24T08:49:32.734Z,8.80
2023-03-24T08:50:40.614Z,8.80
2023-03-24T08:51:43.316Z,8.80
2023-03-24T08:52:48.181Z,8.80
2023-03-24T08:53:52.806Z,8.70
2023-03-24T08:54:55.688Z,8.70
2023-03-24T08:55:59.362Z,8.70
2023-03-24T08:57:01.624Z,8.70
2023-03-24T08:58:03.818Z,8.80
2023-03-24T08:59:06.903Z,8.80
2023-03-24T09:00:14.751Z,8.90
2023-03-24T09:01:17.871Z,9.00
2023-03-24T09:02:20.372Z,9.00
2023-03-24T09:03:23.012Z,9.00
2023-03-24T09:04:25.525Z,8.90
2023-03-24T09:05:43.589Z,8.90
2023-03-24T09:06:47.023Z,8.80
2023-03-24T09:07:51.681Z,8.90
2023-03-24T09:08:55.408Z,8.90
2023-03-24T09:09:58.151Z,8.90
2023-03-24T09:11:00.535Z,8.90
2023-03-24T09:12:03.379Z,8.90
2023-03-24T09:13:05.726Z,9.00
2023-03-24T09:14:08.093Z,9.00
2023-03-24T09:15:13.471Z,9.00
2023-03-24T09:16:16.959Z,9.10
2023-03-24T09:17:19.401Z,9.20
2023-03-24T09:18:22.363Z,9.30
2023-03-24T09:19:24.667Z,9.30
2023-03-24T09:20:27.296Z,9.40
2023-03-24T09:21:29.448Z,9.50
2023-03-24T09:22:31.613Z,9.60
2023-03-24T09:23:34.177Z,9.70
2023-03-24T09:24:37.749Z,9.80
2023-03-24T09:25:40.358Z,9.90
2023-03-24T09:26:42.640Z,9.90
2023-03-24T09:27:50.765Z,9.90
2023-03-24T09:28:52.913Z,9.90
2023-03-24T09:29:55.157Z,9.90
2023-03-24T09:30:58.849Z,9.90
2023-03-24T09:32:01.632Z,9.80
2023-03-24T09:33:04.571Z,9.80
2023-03-24T09:34:06.796Z,9.80
2023-03-24T09:35:09.777Z,9.90
2023-03-24T09:36:12.204Z,10.00
2023-03-24T09:37:14.518Z,9.90
2023-03-24T09:38:17.004Z,9.90
2023-03-24T09:39:28.184Z,9.90
2023-03-24T09:40:39.752Z,9.90
2023-03-24T09:42:13.920Z,9.90
2023-03-24T09:43:27.409Z,10.00
2023-03-24T09:44:34.835Z,10.10
2023-03-24T09:45:43.324Z,10.20
2023-03-24T09:46:48.739Z,10.30
2023-03-24T09:47:55.862Z,10.30
2023-03-24T09:49:01.162Z,10.30
2023-03-24T09:50:07.415Z,10.30
2023-03-24T09:51:13.624Z,10.30
2023-03-24T09:52:23.133Z,10.30
2023-03-24T09:53:31.724Z,10.30
2023-03-24T09:54:42.205Z,10.20
2023-03-24T09:55:46.361Z,10.20
2023-03-24T09:56:51.918Z,10.10
2023-03-24T09:57:57.810Z,10.20
2023-03-24T09:59:06.119Z,10.30
2023-03-24T10:00:19.115Z,10.30
2023-03-24T10:01:27.225Z,10.30
2023-03-24T10:02:34.549Z,10.30
2023-03-24T10:03:40.256Z,10.40
2023-03-24T10:04:44.133Z,10.40
2023-03-24T10:05:52.351Z,10.40
2023-03-24T10:06:59.803Z,10.40
2023-03-24T10:08:09.446Z,10.50
2023-03-24T10:09:23.523Z,10.60
2023-03-24T10:10:36.639Z,10.70
2023-03-24T10:11:47.021Z,10.60
2023-03-24T10:12:49.972Z,10.60
2023-03-24T10:14:04.437Z,10.70
2023-03-24T10:15:24.287Z,10.70
2023-03-24T10:16:45.842Z,10.70
2023-03-24T10:17:56.871Z,10.70
2023-03-24T10:19:21.638Z,10.70
2023-03-24T10:20:37.346Z,10.70
2023-03-24T10:21:42.981Z,10.70
2023-03-24T10:22:59.018Z,10.80
2023-03-24T10:24:10.320Z,10.80
2023-03-24T10:25:21.836Z,10.90
2023-03-24T10:26:36.280Z,10.90
2023-03-24T10:27:50.098Z,11.00
2023-03-24T10:29:02.214Z,11.10
2023-03-24T10:30:12.765Z,11.20
2023-03-24T10:31:18.912Z,11.40
2023-03-24T10:32:27.902Z,11.50
2023-03-24T10:33:30.825Z,11.50
2023-03-24T10:34:42.873Z,11.60
2023-03-24T10:35:57.133Z,11.60
2023-03-24T10:37:01.905Z,11.60
2023-03-24T10:38:11.656Z,11.60
2023-03-24T10:39:19.989Z,11.70
2023-03-24T10:40:33.191Z,11.80
2023-03-24T10:41:38.990Z,11.90
2023-03-24T10:42:43.581Z,11.90
2023-03-24T10:43:47.310Z,12.00
2023-03-24T10:44:51.840Z,12.00
2023-03-24T10:45:56.940Z,12.00
2023-03-24T10:47:04.044Z,12.00
2023-03-24T10:48:13.183Z,12.10
2023-03-24T10:49:21.082Z,12.00
2023-03-24T10:50:25.497Z,12.00
2023-03-24T10:51:35.168Z,12.00
2023-03-24T10:52:40.829Z,12.00
2023-03-24T10:53:43.481Z,12.00
2023-03-24T10:54:56.931Z,12.00
2023-03-24T10:56:02.382Z,12.10
2023-03-24T10:57:14.876Z,12.10
2023-03-24T10:58:26.806Z,12.20
2023-03-24T10:59:35.711Z,12.20
2023-03-24T11:00:43.991Z,12.40
2023-03-24T11:01:49.237Z,12.80
2023-03-24T11:03:17.745Z,13.50
2023-03-24T11:04:26.353Z,14.30
2023-03-24T11:05:33.807Z,15.10
2023-03-24T11:07:00.247Z,15.30
2023-03-24T11:08:29.936Z,15.40
2023-03-24T11:09:44.778Z,15.70
2023-03-24T11:10:46.940Z,15.80
2023-03-24T11:11:52.043Z,15.90
2023-03-24T11:13:05.148Z,16.10
2023-03-24T11:14:26.453Z,16.30
2023-03-24T11:15:33.059Z,15.80
2023-03-24T11:16:38.005Z,15.30
2023-03-24T11:17:42.731Z,15.50
2023-03-24T11:19:19.266Z,15.80
2023-03-24T11:20:29.931Z,16.10
2023-03-24T11:21:40.917Z,16.10
2023-03-24T11:22:48.857Z,16.00
2023-03-24T11:23:51.452Z,15.70
2023-03-24T11:24:57.010Z,15.70
2023-03-24T11:26:09.010Z,15.70
2023-03-24T11:27:18.448Z,15.90
2023-03-24T11:28:28.281Z,16.30
2023-03-24T11:29:36.445Z,16.60
2023-03-24T11:30:47.227Z,16.70
2023-03-24T11:31:55.072Z,16.80
2023-03-24T11:32:58.931Z,17.00
2023-03-24T11:34:10.394Z,17.10
2023-03-24T11:35:17.918Z,17.10
2023-03-24T11:36:52.134Z,17.20
2023-03-24T11:37:57.569Z,17.40
2023-03-24T11:39:05.167Z,17.80
2023-03-24T11:40:22.237Z,18.00
2023-03-24T11:41:24.519Z,18.30
2023-03-24T11:42:32.663Z,18.10
2023-03-24T11:43:35.590Z,17.80
2023-03-24T11:44:49.342Z,17.60
2023-03-24T11:45:59.843Z,17.20
2023-03-24T11:47:12.708Z,16.80
2023-03-24T11:48:25.006Z,16.70
2023-03-24T11:49:30.541Z,16.80
2023-03-24T11:50:35.990Z,16.70
2023-03-24T11:51:41.228Z,16.50
2023-03-24T11:52:49.350Z,16.30
2023-03-24T11:55:28.268Z,16.10
2023-03-24T11:56:41.825Z,16.00
2023-03-24T11:57:52.550Z,15.90
2023-03-24T11:59:00.466Z,16.00
2023-03-24T12:00:14.762Z,16.30
2023-03-24T12:01:30.551Z,16.50
2023-03-24T12:02:47.095Z,16.80
2023-03-24T12:04:25.177Z,17.00
2023-03-24T12:05:34.701Z,16.90
2023-03-24T12:06:50.568Z,17.10
2023-03-24T12:08:14.891Z,16.90
2023-03-24T12:09:27.551Z,17.20
2023-03-24T12:10:51.149Z,17.00
2023-03-24T12:12:09.610Z,17.00
2023-03-24T12:13:29.516Z,16.80
2023-03-24T12:14:47.129Z,16.70
2023-03-24T12:16:00.761Z,16.40
2023-03-24T12:17:10.321Z,16.40
2023-03-24T12:18:39.097Z,16.70
2023-03-24T12:20:01.073Z,16.60
2023-03-24T12:21:12.713Z,17.00
2023-03-24T12:22:28.068Z,17.30
2023-03-24T12:23:39.817Z,17.40
2023-03-24T12:25:01.784Z,17.10
2023-03-24T12:26:14.654Z,16.60
2023-03-24T12:27:29.058Z,16.20
2023-03-24T12:28:58.808Z,16.30
2023-03-24T12:30:02.468Z,17.00
2023-03-24T12:31:19.481Z,17.20
2023-03-24T12:32:47.239Z,17.20
2023-03-24T12:33:58.952Z,17.10
2023-03-24T12:35:20.823Z,16.90
2023-03-24T12:36:44.109Z,17.10
2023-03-24T12:37:54.508Z,17.00
2023-03-24T12:39:05.085Z,17.00
2023-03-24T12:40:49.708Z,16.80
2023-03-24T12:42:06.215Z,16.60
2023-03-24T12:43:19.735Z,16.20
2023-03-24T12:44:50.595Z,15.90
2023-03-24T12:45:58.000Z,15.70
2023-03-24T12:47:14.430Z,15.40
2023-03-24T12:48:36.072Z,15.10
2023-03-24T12:49:49.254Z,14.90
2023-03-24T12:51:02.674Z,14.70
2023-03-24T12:52:20.128Z,14.50
2023-03-24T12:53:36.687Z,14.50
2023-03-24T12:54:49.457Z,14.30
2023-03-24T12:55:54.585Z,14.30
2023-03-24T12:57:01.766Z,14.30
2023-03-24T12:58:11.338Z,14.20
2023-03-24T12:59:18.276Z,14.10
2023-03-24T13:00:27.852Z,14.00
2023-03-24T13:01:35.683Z,13.90
2023-03-24T13:02:43.338Z,13.80
2023-03-24T13:03:48.878Z,13.70
2023-03-24T13:04:55.810Z,13.60
2023-03-24T13:06:16.332Z,13.50
2023-03-24T13:07:25.791Z,13.40
2023-03-24T13:08:32.277Z,13.30
2023-03-24T13:09:43.989Z,13.30
2023-03-24T13:10:47.613Z,13.30
2023-03-24T13:11:57.471Z,13.20
2023-03-24T13:13:03.473Z,13.30
2023-03-24T13:14:12.203Z,13.30
2023-03-24T13:15:17.310Z,13.20
2023-03-24T13:16:23.205Z,13.20
2023-03-24T13:17:30.667Z,13.20
2023-03-24T13:18:37.488Z,13.20
2023-03-24T13:19:41.288Z,13.20
2023-03-24T13:20:46.305Z,13.20
2023-03-24T13:21:54.723Z,13.10
2023-03-24T13:22:59.605Z,13.10
2023-03-24T13:24:08.758Z,13.00
2023-03-24T13:25:29.341Z,13.00
2023-03-24T13:26:41.149Z,13.00
2023-03-24T13:27:47.431Z,12.90
2023-03-24T13:29:00.725Z,12.90
2023-03-24T13:30:22.989Z,12.80
2023-03-24T13:31:28.982Z,12.80
2023-03-24T13:32:36.012Z,12.80
2023-03-24T13:33:44.268Z,12.80
2023-03-24T13:34:55.947Z,12.80
2023-03-24T13:36:11.262Z,12.80
2023-03-24T13:37:17.134Z,12.80
2023-03-24T13:38:22.353Z,12.70
2023-03-24T13:39:26.731Z,12.70
2023-03-24T13:40:32.631Z,12.70
2023-03-24T13:41:37.856Z,12.70
2023-03-24T13:42:45.694Z,12.70
2023-03-24T13:43:50.459Z,12.70
2023-03-24T13:44:52.666Z,12.70
2023-03-24T13:46:00.625Z,12.70
2023-03-24T13:47:13.140Z,12.70
2023-03-24T13:48:26.352Z,12.70
2023-03-24T13:49:31.633Z,12.70
2023-03-24T13:50:35.291Z,12.70
2023-03-24T13:51:43.492Z,12.60
2023-03-24T13:52:48.043Z,12.70
2023-03-24T13:53:53.895Z,12.60
2023-03-24T13:55:01.553Z,12.60
2023-03-24T13:56:05.980Z,12.60
2023-03-24T13:57:14.356Z,12.60
2023-03-24T13:58:20.952Z,12.60
2023-03-24T13:59:29.607Z,12.50
2023-03-24T14:00:31.878Z,12.40
2023-03-24T14:01:37.201Z,12.40
2023-03-24T14:02:47.869Z,12.40
2023-03-24T14:04:26.003Z,12.30
2023-03-24T14:05:57.330Z,12.30
2023-03-24T14:07:20.399Z,12.10
2023-03-24T14:08:35.079Z,12.00
2023-03-24T14:09:58.289Z,12.00
2023-03-24T14:11:00.486Z,11.90
2023-03-24T14:12:20.877Z,11.90
2023-03-24T14:13:46.216Z,11.80
2023-03-24T14:15:18.674Z,11.80
2023-03-24T14:16:42.710Z,11.70
2023-03-24T14:17:48.103Z,11.60
2023-03-24T14:18:50.656Z,11.60
2023-03-24T14:20:12.500Z,11.60
2023-03-24T14:21:16.180Z,11.60
2023-03-24T14:22:32.885Z,11.60
2023-03-24T14:23:40.344Z,11.60
2023-03-24T14:24:45.353Z,11.60
2023-03-24T14:25:54.539Z,11.60
2023-03-24T14:26:56.983Z,11.50
2023-03-24T14:28:21.424Z,11.50
2023-03-24T14:29:49.999Z,11.50
2023-03-24T14:31:10.084Z,11.50
2023-03-24T14:32:21.532Z,11.50
2023-03-24T14:33:26.026Z,11.40
2023-03-24T14:34:29.188Z,11.40
2023-03-24T14:35:34.545Z,11.40
2023-03-24T14:36:40.394Z,11.30
2023-03-24T14:37:50.027Z,11.40
2023-03-24T14:38:52.422Z,11.40
2023-03-24T14:39:57.541Z,11.30
2023-03-24T14:41:07.835Z,11.30
2023-03-24T14:42:54.682Z,11.20
2023-03-24T14:43:59.478Z,11.20
2023-03-24T14:45:03.016Z,11.10
2023-03-24T14:46:29.496Z,11.10
2023-03-24T14:47:34.570Z,11.10